Time;durP1;ratioP1;P1;durP2;ratioP2;P2;SDS_P1;SDS_P2;PMS_P1;PMS_P2;Temp;Humidity;BMP_temperature;BMP_pressure;BME280_temperature;BME280_humidity;BME280_pressure;Samples;Min_cycle;Max_cycle;Signal;HPM_P1;HPM_P2
2023/03/23 00:01:53;;;;;;;4.07;2.60;;;12.30;99.90;;;;;;5085316;28;20781;-59
2023/03/23 00:04:20;;;;;;;3.90;2.10;;;12.30;99.90;;;;;;5077892;28;20222;-59
2023/03/23 00:06:46;;;;;;;2.77;2.13;;;12.30;99.90;;;;;;5081639;28;20194;-60
2023/03/23 00:09:14;;;;;;;3.43;2.30;;;12.30;99.90;;;;;;5081640;28;20206;-59
2023/03/23 00:11:41;;;;;;;4.57;2.43;;;12.30;99.90;;;;;;5080312;28;20266;-59
2023/03/23 00:14:13;;;;;;;2.60;1.90;;;12.30;99.90;;;;;;5080158;28;20229;-62
2023/03/23 00:16:40;;;;;;;3.73;2.20;;;12.30;99.90;;;;;;5080322;28;20208;-60
2023/03/23 00:19:16;;;;;;;2.87;2.07;;;12.30;99.90;;;;;;5088931;28;20223;-59
2023/03/23 00:21:43;;;;;;;3.23;2.20;;;12.30;99.90;;;;;;5078201;28;20207;-59
2023/03/23 00:24:17;;;;;;;2.50;2.07;;;12.40;99.90;;;;;;5076447;27;20312;-60
2023/03/23 00:26:45;;;;;;;2.60;1.90;;;12.40;99.90;;;;;;5085981;28;20198;-59
2023/03/23 00:29:15;;;;;;;5.10;2.10;;;12.40;99.90;;;;;;5078690;28;20195;-59
2023/03/23 00:31:46;;;;;;;2.83;2.00;;;12.40;99.90;;;;;;5087644;28;20287;-59
2023/03/23 00:34:13;;;;;;;4.43;2.37;;;12.40;99.90;;;;;;5078976;28;21730;-60
2023/03/23 00:36:42;;;;;;;3.53;2.20;;;12.40;99.90;;;;;;5070700;28;20201;-59
2023/03/23 00:39:08;;;;;;;2.87;2.10;;;12.30;99.90;;;;;;5066884;28;20199;-59
2023/03/23 00:41:36;;;;;;;4.07;1.90;;;12.30;99.90;;;;;;5076962;28;20264;-59
2023/03/23 00:44:03;;;;;;;3.47;2.33;;;12.30;99.90;;;;;;5048689;28;20319;-60
2023/03/23 00:46:29;;;;;;;5.37;2.40;;;12.30;99.90;;;;;;5080219;28;20210;-59
2023/03/23 00:48:56;;;;;;;3.80;2.20;;;12.30;99.90;;;;;;5081136;28;20231;-60
2023/03/23 00:51:23;;;;;;;4.53;2.33;;;12.30;99.90;;;;;;5062927;28;20207;-62
2023/03/23 00:53:50;;;;;;;3.53;2.30;;;12.30;99.90;;;;;;5077603;28;20206;-59
2023/03/23 00:56:15;;;;;;;5.70;2.97;;;12.30;99.90;;;;;;5076386;28;20204;-59
2023/03/23 00:58:42;;;;;;;5.73;2.70;;;12.20;99.90;;;;;;5078957;28;20202;-59
2023/03/23 01:01:08;;;;;;;2.40;2.03;;;12.20;99.90;;;;;;5076545;28;20206;-59
2023/03/23 01:03:34;;;;;;;3.73;2.20;;;12.20;99.90;;;;;;5086716;28;20234;-59
2023/03/23 01:06:05;;;;;;;3.37;2.40;;;12.30;99.90;;;;;;5076762;28;20233;-63
2023/03/23 01:08:31;;;;;;;4.47;3.20;;;12.20;99.90;;;;;;5078379;28;20998;-66
2023/03/23 01:11:07;;;;;;;3.00;2.47;;;12.20;99.90;;;;;;5078796;28;20234;-59
2023/03/23 01:13:33;;;;;;;5.00;2.40;;;12.20;99.90;;;;;;5073446;28;20201;-60
2023/03/23 01:15:59;;;;;;;3.07;2.00;;;12.20;99.90;;;;;;5073919;28;20201;-60
2023/03/23 01:18:25;;;;;;;4.17;2.00;;;12.20;99.90;;;;;;5077246;28;20773;-60
2023/03/23 01:20:50;;;;;;;4.17;2.50;;;12.30;99.90;;;;;;5079428;28;20224;-59
2023/03/23 01:23:16;;;;;;;3.20;2.33;;;12.20;99.90;;;;;;5062361;28;20219;-59
2023/03/23 01:25:43;;;;;;;4.33;2.30;;;12.20;99.90;;;;;;5077200;28;20197;-59
2023/03/23 01:28:10;;;;;;;4.83;2.70;;;12.20;99.90;;;;;;5076369;27;20243;-59
2023/03/23 01:30:36;;;;;;;4.40;2.83;;;12.20;99.90;;;;;;5074862;27;20223;-59
2023/03/23 01:33:01;;;;;;;3.20;2.30;;;12.20;99.90;;;;;;5091051;28;20216;-59
2023/03/23 01:35:27;;;;;;;4.13;2.40;;;12.30;99.90;;;;;;5073199;28;20207;-59
2023/03/23 01:37:54;;;;;;;4.67;2.73;;;12.20;99.90;;;;;;5078027;28;20196;-59
2023/03/23 01:40:20;;;;;;;4.77;2.70;;;12.30;99.90;;;;;;5076315;28;20215;-59
2023/03/23 01:42:45;;;;;;;4.47;2.27;;;12.30;99.90;;;;;;5074308;28;20217;-59
2023/03/23 01:45:31;;;;;;;2.80;2.50;;;12.40;99.90;;;;;;5076172;28;20232;-59
2023/03/23 01:48:16;;;;;;;2.77;2.30;;;12.40;99.90;;;;;;5077600;28;20232;-60
2023/03/23 01:50:50;;;;;;;4.40;2.43;;;12.40;99.90;;;;;;5076662;28;20202;-59
2023/03/23 01:53:17;;;;;;;4.93;2.37;;;12.40;99.90;;;;;;5077971;28;20283;-59
2023/03/23 01:55:48;;;;;;;3.53;2.50;;;12.50;99.90;;;;;;5071693;28;20581;-59
2023/03/23 01:58:16;;;;;;;3.33;2.13;;;12.50;99.90;;;;;;5077818;28;20249;-60
2023/03/23 02:00:43;;;;;;;3.57;2.23;;;12.50;99.90;;;;;;5075912;28;21105;-59
2023/03/23 02:03:11;;;;;;;2.70;2.50;;;12.50;99.90;;;;;;5076775;28;20569;-59
2023/03/23 02:05:40;;;;;;;4.37;2.30;;;12.50;99.90;;;;;;5074934;28;20480;-59
2023/03/23 02:08:08;;;;;;;4.07;2.70;;;12.50;99.90;;;;;;5077923;28;20205;-60
2023/03/23 02:10:35;;;;;;;5.07;2.60;;;12.50;99.90;;;;;;5058067;28;20205;-59
2023/03/23 02:13:03;;;;;;;3.00;2.60;;;12.60;99.90;;;;;;5075014;28;20205;-60
2023/03/23 02:15:44;;;;;;;3.93;3.00;;;12.60;99.90;;;;;;5079016;28;20389;-60
2023/03/23 02:18:33;;;;;;;3.33;2.33;;;12.60;99.90;;;;;;5078024;28;20304;-59
2023/03/23 02:21:13;;;;;;;4.57;2.70;;;12.70;99.90;;;;;;5042679;28;20613;-64
2023/03/23 02:24:06;;;;;;;5.00;2.77;;;12.60;99.90;;;;;;5097345;28;20256;-65
2023/03/23 02:26:56;;;;;;;4.13;2.37;;;12.60;99.90;;;;;;5078636;28;20206;-58
2023/03/23 02:30:00;;;;;;;2.93;2.57;;;12.70;99.90;;;;;;5076290;28;20194;-58
2023/03/23 02:32:54;;;;;;;3.37;2.40;;;12.70;99.90;;;;;;5077857;28;21053;-59
2023/03/23 02:35:35;;;;;;;3.00;2.17;;;12.70;99.90;;;;;;5081294;28;20604;-59
2023/03/23 02:38:16;;;;;;;4.27;2.47;;;12.70;99.90;;;;;;5079229;28;20276;-61
2023/03/23 02:40:46;;;;;;;4.43;2.03;;;12.70;99.90;;;;;;5075602;28;20197;-58
2023/03/23 02:43:19;;;;;;;5.23;2.30;;;12.80;99.90;;;;;;5075611;28;20234;-59
2023/03/23 02:45:46;;;;;;;4.93;2.20;;;12.80;99.90;;;;;;5067842;28;20596;-59
2023/03/23 02:48:15;;;;;;;3.77;2.27;;;12.80;99.90;;;;;;5077713;28;20262;-58
2023/03/23 02:50:47;;;;;;;2.67;2.10;;;12.80;99.90;;;;;;5092362;28;20654;-59
2023/03/23 02:53:18;;;;;;;3.33;1.90;;;12.80;99.90;;;;;;5099972;28;20635;-58
2023/03/23 02:55:45;;;;;;;3.27;2.20;;;12.80;99.90;;;;;;5090786;28;20266;-59
2023/03/23 02:58:12;;;;;;;3.10;2.33;;;12.80;99.90;;;;;;5089507;28;21451;-58
2023/03/23 03:00:39;;;;;;;2.77;1.97;;;12.90;99.90;;;;;;5077727;28;20279;-60
2023/03/23 03:03:10;;;;;;;2.80;2.17;;;12.90;99.90;;;;;;5092883;28;20230;-59
2023/03/23 03:05:59;;;;;;;4.23;2.10;;;12.90;99.90;;;;;;5088909;28;20202;-58
2023/03/23 03:08:52;;;;;;;3.20;1.80;;;12.90;99.90;;;;;;5091377;28;20678;-59
2023/03/23 03:11:22;;;;;;;3.83;2.10;;;12.90;99.90;;;;;;5092805;28;20253;-59
2023/03/23 03:14:06;;;;;;;2.50;2.00;;;12.90;99.90;;;;;;5095858;28;20204;-58
2023/03/23 03:16:42;;;;;;;2.93;2.30;;;12.90;99.90;;;;;;5073843;28;20654;-58
2023/03/23 03:19:20;;;;;;;2.40;1.80;;;12.90;99.90;;;;;;5092664;28;20231;-59
2023/03/23 03:21:49;;;;;;;3.57;1.90;;;12.90;99.90;;;;;;5093506;28;20222;-59
2023/03/23 03:24:19;;;;;;;2.47;1.80;;;12.90;99.90;;;;;;5091686;28;20218;-60
2023/03/23 03:26:47;;;;;;;5.70;2.17;;;12.90;99.90;;;;;;5080281;28;20574;-59
2023/03/23 03:29:23;;;;;;;6.30;2.43;;;12.90;99.90;;;;;;5092467;28;20230;-59
2023/03/23 03:31:50;;;;;;;3.53;1.80;;;12.90;99.90;;;;;;5091173;28;20287;-59
2023/03/23 03:34:17;;;;;;;3.77;2.60;;;12.90;99.90;;;;;;5092021;28;20685;-58
2023/03/23 03:36:48;;;;;;;4.07;2.30;;;12.90;99.90;;;;;;5093547;28;20202;-58
2023/03/23 03:39:15;;;;;;;4.57;2.13;;;12.90;99.90;;;;;;5090983;28;20286;-58
2023/03/23 03:41:42;;;;;;;3.77;2.03;;;13.00;99.90;;;;;;5091277;28;20201;-59
2023/03/23 03:44:08;;;;;;;2.73;2.00;;;12.90;99.90;;;;;;5076086;28;20222;-59
2023/03/23 03:46:35;;;;;;;3.90;2.10;;;12.90;99.90;;;;;;5097221;28;20204;-58
2023/03/23 03:49:05;;;;;;;5.40;2.20;;;12.90;99.90;;;;;;5095034;28;20740;-65
2023/03/23 03:51:32;;;;;;;5.07;2.10;;;12.90;99.90;;;;;;5094704;28;20186;-61
2023/03/23 03:53:58;;;;;;;3.53;2.00;;;12.90;99.90;;;;;;5094456;28;20194;-59
2023/03/23 03:56:24;;;;;;;3.30;2.47;;;12.90;99.90;;;;;;5093005;28;20742;-60
2023/03/23 03:58:50;;;;;;;2.53;1.73;;;12.90;99.90;;;;;;5096121;28;20251;-60
2023/03/23 04:01:18;;;;;;;3.53;2.20;;;12.90;99.90;;;;;;5083566;28;20194;-60
2023/03/23 04:03:44;;;;;;;3.87;1.87;;;12.90;99.90;;;;;;5098056;28;20231;-60
2023/03/23 04:06:12;;;;;;;4.37;2.20;;;12.90;99.90;;;;;;5097351;28;20197;-60
2023/03/23 04:08:41;;;;;;;3.73;1.97;;;12.90;99.90;;;;;;5079978;28;20205;-60
2023/03/23 04:11:08;;;;;;;4.93;1.80;;;12.90;99.90;;;;;;5094227;28;20553;-60
2023/03/23 04:13:34;;;;;;;4.07;1.70;;;12.80;99.90;;;;;;5080185;28;20202;-60
2023/03/23 04:16:00;;;;;;;3.17;1.73;;;12.80;99.90;;;;;;5075913;28;20287;-60
2023/03/23 04:18:26;;;;;;;5.37;1.97;;;12.80;99.90;;;;;;5097797;28;20298;-60
2023/03/23 04:20:52;;;;;;;3.23;1.60;;;12.80;99.90;;;;;;5095102;28;20292;-60
2023/03/23 04:23:21;;;;;;;5.73;1.70;;;12.80;99.90;;;;;;5094006;28;20228;-64
2023/03/23 04:25:49;;;;;;;4.23;1.60;;;12.80;99.90;;;;;;5091345;28;20205;-60
2023/03/23 04:28:18;;;;;;;5.63;1.93;;;12.80;99.90;;;;;;5097820;28;20267;-60
2023/03/23 04:30:44;;;;;;;4.57;1.60;;;12.80;99.90;;;;;;5083304;28;20238;-61
2023/03/23 04:33:14;;;;;;;6.30;1.57;;;12.80;99.90;;;;;;5095453;28;20284;-59
2023/03/23 04:35:45;;;;;;;4.67;1.33;;;12.80;99.90;;;;;;5094818;28;20201;-58
2023/03/23 04:38:13;;;;;;;4.90;1.40;;;12.80;99.90;;;;;;5094954;28;20206;-56
2023/03/23 04:40:40;;;;;;;6.17;1.40;;;12.70;99.90;;;;;;5078994;28;20207;-56
2023/03/23 04:43:06;;;;;;;4.03;1.27;;;12.70;99.90;;;;;;5095460;27;20705;-57
2023/03/23 04:45:33;;;;;;;7.47;1.70;;;12.70;99.90;;;;;;5093336;28;20258;-56
2023/03/23 04:48:01;;;;;;;3.83;1.43;;;12.70;99.90;;;;;;5079282;28;20233;-56
2023/03/23 04:50:30;;;;;;;3.47;1.50;;;12.70;99.90;;;;;;5096762;28;20209;-56
2023/03/23 04:52:58;;;;;;;3.53;1.40;;;12.70;99.90;;;;;;5083496;28;20229;-58
2023/03/23 04:55:25;;;;;;;3.73;1.40;;;12.70;99.90;;;;;;5098265;28;20186;-58
2023/03/23 04:57:51;;;;;;;5.70;1.43;;;12.70;99.90;;;;;;5093828;28;20572;-59
2023/03/23 05:00:18;;;;;;;4.60;1.30;;;12.60;99.90;;;;;;5092423;28;20197;-59
2023/03/23 05:02:52;;;;;;;4.70;1.20;;;12.60;99.90;;;;;;5096575;28;20229;-58
2023/03/23 05:05:19;;;;;;;3.73;1.20;;;12.60;99.90;;;;;;5092873;28;20221;-58
2023/03/23 05:07:45;;;;;;;4.53;1.67;;;12.60;99.90;;;;;;5094030;28;20197;-59
2023/03/23 05:10:12;;;;;;;4.60;1.20;;;12.60;99.90;;;;;;5091965;28;20343;-59
2023/03/23 05:12:39;;;;;;;3.20;1.17;;;12.60;99.90;;;;;;5097934;28;20204;-59
2023/03/23 05:15:06;;;;;;;3.80;1.23;;;12.60;99.90;;;;;;5095389;28;20304;-59
2023/03/23 05:17:33;;;;;;;5.43;1.50;;;12.50;99.90;;;;;;5079931;28;20641;-58
2023/03/23 05:20:00;;;;;;;3.13;1.30;;;12.50;99.90;;;;;;5079129;28;20201;-59
2023/03/23 05:22:32;;;;;;;4.03;1.47;;;12.60;99.90;;;;;;5093851;28;20211;-59
2023/03/23 05:24:59;;;;;;;3.40;1.00;;;12.50;99.90;;;;;;5093807;28;20229;-58
2023/03/23 05:27:27;;;;;;;5.40;1.50;;;12.50;99.90;;;;;;5074802;28;20597;-59
2023/03/23 05:29:53;;;;;;;4.03;1.13;;;12.50;99.90;;;;;;5094541;28;20262;-58
2023/03/23 05:32:19;;;;;;;4.63;1.43;;;12.50;99.90;;;;;;5093073;28;20627;-59
2023/03/23 05:34:46;;;;;;;4.30;1.03;;;12.50;99.90;;;;;;5095356;28;20231;-59
2023/03/23 05:37:13;;;;;;;8.93;1.67;;;12.50;99.90;;;;;;5091488;28;20199;-59
2023/03/23 05:39:39;;;;;;;5.10;1.63;;;12.50;99.90;;;;;;5092914;28;20202;-58
2023/03/23 05:42:06;;;;;;;2.53;1.27;;;12.50;99.90;;;;;;5091905;28;20683;-59
2023/03/23 05:44:32;;;;;;;5.23;1.30;;;12.50;99.90;;;;;;5091786;28;21088;-59
2023/03/23 05:46:57;;;;;;;3.30;1.20;;;12.50;99.90;;;;;;5090846;28;20209;-58
2023/03/23 05:49:24;;;;;;;4.13;1.20;;;12.50;99.90;;;;;;5093128;28;20443;-58
2023/03/23 05:51:51;;;;;;;4.20;1.20;;;12.50;99.90;;;;;;5097167;28;20199;-58
2023/03/23 05:54:17;;;;;;;1.87;1.20;;;12.50;99.90;;;;;;5075464;28;20878;-58
2023/03/23 05:56:42;;;;;;;5.37;1.20;;;12.50;99.90;;;;;;5078182;28;20198;-58
2023/03/23 05:59:10;;;;;;;4.67;1.20;;;12.50;99.90;;;;;;5096511;28;20685;-58
2023/03/23 06:01:37;;;;;;;2.77;1.30;;;12.50;99.90;;;;;;5091439;28;20208;-59
2023/03/23 06:04:03;;;;;;;2.33;1.20;;;12.50;99.90;;;;;;5094160;28;20999;-59
2023/03/23 06:06:30;;;;;;;2.73;0.97;;;12.50;99.90;;;;;;5090489;28;20286;-59
2023/03/23 06:08:56;;;;;;;4.53;1.40;;;12.50;99.90;;;;;;5094987;28;20606;-63
2023/03/23 06:11:24;;;;;;;1.87;1.10;;;12.50;99.90;;;;;;5092454;28;20518;-58
2023/03/23 06:13:50;;;;;;;4.57;1.40;;;12.50;99.90;;;;;;5094196;28;21824;-59
2023/03/23 06:16:16;;;;;;;3.90;1.37;;;12.50;99.90;;;;;;5075125;28;20197;-58
2023/03/23 06:18:42;;;;;;;4.00;1.57;;;12.50;99.90;;;;;;5095294;28;20232;-58
2023/03/23 06:21:12;;;;;;;3.43;1.27;;;12.50;99.90;;;;;;5103692;28;20209;-58
2023/03/23 06:23:39;;;;;;;6.97;1.23;;;12.50;99.90;;;;;;5101814;28;20303;-59
2023/03/23 06:26:07;;;;;;;6.93;1.60;;;12.50;99.90;;;;;;5078613;28;20204;-60
2023/03/23 06:28:34;;;;;;;3.57;1.50;;;12.50;99.90;;;;;;5079844;28;20195;-59
2023/03/23 06:31:01;;;;;;;6.63;1.50;;;12.40;99.90;;;;;;5090642;28;20194;-60
2023/03/23 06:33:27;;;;;;;3.13;1.20;;;12.40;99.90;;;;;;5078376;28;20200;-59
2023/03/23 06:35:53;;;;;;;2.63;1.30;;;12.30;99.90;;;;;;5094784;28;20212;-59
2023/03/23 06:38:19;;;;;;;3.10;1.23;;;12.30;99.90;;;;;;5077677;28;20610;-60
2023/03/23 06:40:46;;;;;;;5.10;1.40;;;12.20;99.90;;;;;;5078456;28;20274;-60
2023/03/23 06:43:13;;;;;;;5.07;1.47;;;12.20;99.90;;;;;;5079561;28;20653;-62
2023/03/23 06:45:40;;;;;;;3.77;1.40;;;12.10;99.90;;;;;;5072230;28;20279;-60
2023/03/23 06:48:06;;;;;;;8.77;2.00;;;11.90;99.90;;;;;;5094359;28;20221;-60
2023/03/23 06:50:32;;;;;;;5.87;1.83;;;11.90;99.90;;;;;;5091029;28;20201;-62
2023/03/23 06:52:58;;;;;;;2.33;1.30;;;11.90;99.90;;;;;;5078481;28;20223;-60
2023/03/23 06:55:24;;;;;;;5.33;1.50;;;11.80;99.90;;;;;;5079379;28;20227;-60
2023/03/23 06:57:49;;;;;;;2.67;1.80;;;11.80;99.90;;;;;;5090047;28;20206;-57
2023/03/23 07:00:16;;;;;;;5.40;1.50;;;11.80;99.90;;;;;;5057121;28;20685;-58
2023/03/23 07:02:42;;;;;;;7.23;1.60;;;11.70;99.90;;;;;;5087745;28;20598;-58
2023/03/23 07:05:09;;;;;;;7.37;1.80;;;11.60;99.90;;;;;;5073139;28;20211;-57
2023/03/23 07:07:36;;;;;;;7.57;2.37;;;11.50;99.90;;;;;;5090763;28;20193;-58
2023/03/23 07:10:05;;;;;;;6.53;2.10;;;11.40;99.90;;;;;;5092057;28;20204;-58
2023/03/23 07:12:33;;;;;;;5.83;1.80;;;11.40;99.90;;;;;;5082835;28;20193;-57
2023/03/23 07:14:59;;;;;;;5.90;1.60;;;11.40;99.90;;;;;;5089335;28;20205;-57
2023/03/23 07:17:25;;;;;;;5.63;1.63;;;11.40;99.90;;;;;;5093322;28;20284;-57
2023/03/23 07:19:51;;;;;;;3.83;1.60;;;11.30;99.90;;;;;;5095714;28;20616;-57
2023/03/23 07:22:17;;;;;;;4.00;1.80;;;11.30;99.90;;;;;;5068194;28;20188;-58
2023/03/23 07:24:42;;;;;;;4.37;1.33;;;11.30;99.90;;;;;;5078533;28;22318;-58
2023/03/23 07:27:09;;;;;;;4.73;2.07;;;11.30;99.90;;;;;;5084902;28;20274;-58
2023/03/23 07:29:38;;;;;;;6.10;1.80;;;11.30;99.90;;;;;;5102303;27;20193;-58
2023/03/23 07:32:05;;;;;;;4.93;2.00;;;11.30;99.90;;;;;;4715836;28;10000554;-58
2023/03/23 07:34:31;;;;;;;9.03;2.97;;;11.40;99.90;;;;;;5086049;28;20632;-57
2023/03/23 07:36:58;;;;;;;5.37;1.80;;;11.30;99.90;;;;;;5096192;28;20310;-58
2023/03/23 07:39:25;;;;;;;5.47;2.00;;;11.30;99.90;;;;;;5079637;28;20595;-57
2023/03/23 07:41:51;;;;;;;7.60;1.77;;;11.30;99.90;;;;;;5079351;28;20868;-57
2023/03/23 07:44:17;;;;;;;8.57;1.33;;;11.30;99.90;;;;;;5093987;28;20216;-57
2023/03/23 07:46:43;;;;;;;3.67;1.33;;;11.20;99.90;;;;;;5094070;28;20298;-57
2023/03/23 07:49:10;;;;;;;4.97;1.47;;;11.20;99.90;;;;;;5090099;28;20251;-57
2023/03/23 07:51:38;;;;;;;3.73;1.40;;;11.20;99.90;;;;;;5091918;28;20660;-57
2023/03/23 07:54:04;;;;;;;1.33;1.10;;;11.10;99.90;;;;;;5094943;28;20296;-57
2023/03/23 07:56:31;;;;;;;2.60;1.33;;;11.10;99.90;;;;;;5077366;28;20255;-57
2023/03/23 07:58:57;;;;;;;3.77;1.30;;;11.00;99.90;;;;;;5094219;28;20276;-58
2023/03/23 08:01:26;;;;;;;3.27;1.00;;;11.00;99.90;;;;;;5074930;28;20856;-57
2023/03/23 08:03:54;;;;;;;2.63;1.10;;;11.00;99.90;;;;;;5073594;28;20221;-57
2023/03/23 08:06:21;;;;;;;2.53;1.00;;;11.00;99.90;;;;;;5091806;28;20224;-57
2023/03/23 08:08:47;;;;;;;2.93;1.10;;;11.00;99.90;;;;;;5076643;28;20250;-57
2023/03/23 08:11:15;;;;;;;2.97;0.90;;;11.00;99.90;;;;;;5074261;28;20207;-57
2023/03/23 08:13:41;;;;;;;2.53;1.00;;;11.00;99.90;;;;;;5076434;28;20668;-58
2023/03/23 08:16:09;;;;;;;1.30;0.90;;;11.00;99.90;;;;;;5093285;27;20212;-57
2023/03/23 08:18:35;;;;;;;2.17;1.03;;;11.00;99.90;;;;;;5085801;28;21172;-57
2023/03/23 08:21:04;;;;;;;2.93;0.93;;;11.00;99.90;;;;;;5058372;28;20205;-57
2023/03/23 08:23:31;;;;;;;3.13;0.70;;;11.00;99.90;;;;;;5067505;28;20229;-57
2023/03/23 08:25:56;;;;;;;3.90;1.00;;;10.90;99.90;;;;;;5088537;28;20215;-57
2023/03/23 08:28:23;;;;;;;2.00;0.70;;;10.90;99.90;;;;;;5085006;28;20338;-57
2023/03/23 08:30:49;;;;;;;2.57;0.90;;;10.80;99.90;;;;;;5090014;28;20537;-62
2023/03/23 08:33:15;;;;;;;2.37;0.93;;;10.90;99.90;;;;;;5086769;28;20212;-58
2023/03/23 08:35:43;;;;;;;5.37;1.27;;;10.90;99.90;;;;;;5066949;28;20558;-56
2023/03/23 08:38:11;;;;;;;2.13;0.80;;;10.90;99.90;;;;;;5075014;28;20523;-58
2023/03/23 08:40:39;;;;;;;6.93;1.07;;;10.90;99.90;;;;;;5082794;28;20204;-57
2023/03/23 08:43:05;;;;;;;2.83;0.70;;;10.90;99.90;;;;;;5101842;27;20232;-57
2023/03/23 08:45:31;;;;;;;4.20;1.03;;;11.10;99.90;;;;;;5081833;28;20244;-58
2023/03/23 08:47:58;;;;;;;1.20;0.80;;;11.10;99.90;;;;;;5053595;28;20319;-57
2023/03/23 08:50:26;;;;;;;1.57;1.17;;;11.10;99.90;;;;;;5059773;28;20613;-58
2023/03/23 08:52:54;;;;;;;2.43;0.80;;;11.10;99.90;;;;;;5090180;28;20319;-57
2023/03/23 08:55:21;;;;;;;3.87;1.10;;;11.10;99.90;;;;;;5092379;27;20219;-57
2023/03/23 08:57:47;;;;;;;2.00;0.90;;;11.10;99.90;;;;;;5068184;28;20219;-57
2023/03/23 09:00:19;;;;;;;1.40;1.03;;;11.10;99.90;;;;;;5083075;28;20205;-61
2023/03/23 09:02:49;;;;;;;3.37;0.90;;;11.10;99.90;;;;;;5092213;28;20216;-61
2023/03/23 09:05:22;;;;;;;5.93;1.10;;;11.10;99.90;;;;;;5092163;28;20660;-61
2023/03/23 09:07:50;;;;;;;5.40;0.87;;;11.20;99.90;;;;;;5069620;28;20257;-61
2023/03/23 09:10:17;;;;;;;4.13;1.00;;;11.30;99.90;;;;;;5091982;28;20211;-61
2023/03/23 09:12:45;;;;;;;2.47;0.90;;;11.30;99.90;;;;;;5061644;28;20746;-61
2023/03/23 09:15:14;;;;;;;1.33;1.00;;;11.30;99.90;;;;;;5087861;28;20606;-61
2023/03/23 09:17:45;;;;;;;2.40;0.90;;;11.40;99.90;;;;;;5069140;28;20275;-61
2023/03/23 09:20:13;;;;;;;3.33;1.07;;;11.80;99.90;;;;;;5093298;28;20782;-57
2023/03/23 09:22:41;;;;;;;1.83;1.10;;;12.20;99.90;;;;;;5091281;28;20298;-57
2023/03/23 09:25:08;;;;;;;4.77;1.10;;;12.50;99.90;;;;;;5089115;28;20198;-58
2023/03/23 09:27:36;;;;;;;4.70;1.10;;;12.70;99.90;;;;;;5087757;28;20206;-59
2023/03/23 09:30:06;;;;;;;5.77;1.20;;;13.00;99.90;;;;;;5092605;28;20667;-60
2023/03/23 09:32:34;;;;;;;3.37;1.40;;;13.00;99.90;;;;;;5091365;28;20668;-60
2023/03/23 09:35:01;;;;;;;3.43;1.13;;;13.00;99.90;;;;;;5075169;28;20204;-59
2023/03/23 09:37:28;;;;;;;6.03;1.40;;;13.10;99.90;;;;;;5074551;28;20354;-60
2023/03/23 09:39:54;;;;;;;3.10;0.93;;;13.30;99.90;;;;;;5072263;28;20225;-61
2023/03/23 09:42:54;;;;;;;4.73;1.67;;;13.40;99.90;;;;;;5087300;28;20272;-63
2023/03/23 09:45:48;;;;;;;2.97;1.20;;;13.40;99.90;;;;;;5086664;28;20577;-59
2023/03/23 09:48:43;;;;;;;3.07;1.30;;;13.70;99.90;;;;;;5077326;28;20252;-60
2023/03/23 09:51:25;;;;;;;6.67;1.67;;;13.90;99.90;;;;;;5087941;28;20292;-60
2023/03/23 09:54:13;;;;;;;5.17;1.50;;;13.40;99.90;;;;;;5090526;28;20701;-60
2023/03/23 09:56:39;;;;;;;3.77;1.40;;;13.40;99.90;;;;;;5074541;28;20289;-60
2023/03/23 09:59:15;;;;;;;2.27;1.10;;;13.40;99.90;;;;;;5071339;28;20206;-59
2023/03/23 10:01:46;;;;;;;6.60;1.60;;;13.30;99.90;;;;;;5075886;28;21945;-60
2023/03/23 10:04:38;;;;;;;6.13;1.30;;;13.30;99.90;;;;;;5090128;28;20225;-59
2023/03/23 10:07:27;;;;;;;5.17;1.67;;;13.70;99.90;;;;;;5092290;28;22292;-60
2023/03/23 10:09:56;;;;;;;3.23;1.00;;;13.90;99.90;;;;;;5091690;28;20198;-59
2023/03/23 10:12:45;;;;;;;4.83;1.50;;;13.80;99.90;;;;;;5085181;28;20573;-59
2023/03/23 10:15:23;;;;;;;6.83;1.43;;;13.80;99.90;;;;;;5070867;28;20260;-59
2023/03/23 10:18:12;;;;;;;3.27;1.20;;;13.40;99.90;;;;;;5085234;28;20236;-59
2023/03/23 10:20:59;;;;;;;8.77;1.63;;;13.60;99.90;;;;;;5073685;28;20194;-59
2023/03/23 10:23:53;;;;;;;4.50;1.73;;;13.90;99.90;;;;;;5091283;28;20769;-60
2023/03/23 10:26:28;;;;;;;5.60;1.97;;;13.70;99.90;;;;;;5087408;28;20240;-59
2023/03/23 10:29:05;;;;;;;6.43;1.70;;;14.00;99.90;;;;;;5088844;28;20202;-59
2023/03/23 10:31:37;;;;;;;5.10;2.00;;;13.90;99.90;;;;;;5086951;28;20301;-60
2023/03/23 10:34:28;;;;;;;5.97;1.53;;;13.80;99.90;;;;;;5095378;28;20680;-60
2023/03/23 10:37:10;;;;;;;2.63;1.50;;;13.90;99.90;;;;;;5074200;28;20203;-60
2023/03/23 10:40:09;;;;;;;5.20;2.00;;;14.20;99.90;;;;;;5093992;28;20923;-59
2023/03/23 10:42:38;;;;;;;3.57;2.53;;;14.10;99.90;;;;;;5088294;28;20256;-60
2023/03/23 10:45:27;;;;;;;4.80;2.17;;;14.00;99.90;;;;;;5091833;28;20288;-59
2023/03/23 10:47:58;;;;;;;4.30;2.00;;;14.10;99.90;;;;;;5091232;28;20245;-60
2023/03/23 10:50:32;;;;;;;8.30;1.97;;;14.20;99.90;;;;;;5089357;28;20205;-60
2023/03/23 10:52:59;;;;;;;7.00;1.97;;;14.10;99.90;;;;;;5095749;28;20335;-60
2023/03/23 10:55:38;;;;;;;3.30;1.90;;;14.30;99.90;;;;;;5097824;28;20194;-60
2023/03/23 10:58:09;;;;;;;4.30;1.70;;;14.60;99.90;;;;;;5094655;28;20196;-59
2023/03/23 11:00:44;;;;;;;5.00;1.83;;;14.80;99.90;;;;;;5096826;28;20250;-60
2023/03/23 11:03:17;;;;;;;4.87;1.87;;;14.80;99.90;;;;;;5096444;28;20320;-59
2023/03/23 11:05:48;;;;;;;3.43;1.87;;;14.70;99.90;;;;;;5099676;28;20226;-59
2023/03/23 11:08:22;;;;;;;4.70;3.03;;;14.50;99.90;;;;;;5096771;28;20277;-59
2023/03/23 11:10:49;;;;;;;8.53;1.90;;;14.40;99.90;;;;;;5104979;28;20194;-59
2023/03/23 11:13:17;;;;;;;5.47;1.77;;;14.40;99.90;;;;;;5100120;28;20194;-60
2023/03/23 11:15:46;;;;;;;2.27;1.70;;;14.80;99.90;;;;;;5097992;28;20213;-60
2023/03/23 11:18:13;;;;;;;4.67;1.43;;;15.00;99.90;;;;;;5097160;28;20279;-60
2023/03/23 11:20:44;;;;;;;5.47;1.80;;;15.20;99.90;;;;;;5099185;28;20552;-60
2023/03/23 11:23:27;;;;;;;2.93;1.30;;;15.50;99.90;;;;;;5100738;28;20214;-59
2023/03/23 11:25:57;;;;;;;3.43;1.50;;;15.60;99.90;;;;;;5098341;28;20215;-59
2023/03/23 11:28:33;;;;;;;2.90;1.87;;;15.20;99.90;;;;;;5098569;28;20276;-60
2023/03/23 11:31:02;;;;;;;3.20;1.33;;;15.00;99.90;;;;;;5084802;28;20514;-60
2023/03/23 11:33:38;;;;;;;2.53;1.57;;;14.90;99.90;;;;;;5097896;28;20205;-60
2023/03/23 11:36:06;;;;;;;3.60;1.20;;;15.00;99.90;;;;;;5100923;28;20208;-59
2023/03/23 11:38:33;;;;;;;5.37;1.60;;;15.00;99.90;;;;;;5105403;28;20265;-59
2023/03/23 11:41:00;;;;;;;3.57;1.53;;;15.30;99.90;;;;;;5098525;28;20204;-59
2023/03/23 11:43:26;;;;;;;3.00;1.30;;;15.40;99.90;;;;;;5100047;28;20226;-60
2023/03/23 11:45:59;;;;;;;4.87;1.07;;;16.10;99.90;;;;;;5100133;28;20284;-59
2023/03/23 11:48:51;;;;;;;4.47;1.60;;;16.20;99.90;;;;;;5107040;28;20708;-60
2023/03/23 11:51:40;;;;;;;3.23;1.50;;;15.90;99.90;;;;;;5101172;28;20199;-59
2023/03/23 11:54:22;;;;;;;5.43;1.43;;;15.40;99.90;;;;;;5083404;28;20612;-60
2023/03/23 11:56:47;;;;;;;4.73;1.70;;;15.70;99.90;;;;;;5089105;28;20194;-60
2023/03/23 11:59:26;;;;;;;3.70;1.13;;;15.80;99.90;;;;;;5099484;28;20704;-60
2023/03/23 12:01:57;;;;;;;3.13;1.17;;;15.60;99.90;;;;;;5097179;28;20202;-60
2023/03/23 12:04:45;;;;;;;3.17;1.37;;;15.50;99.90;;;;;;5094546;27;20290;-60
2023/03/23 12:07:30;;;;;;;5.20;1.20;;;15.30;99.90;;;;;;5100352;28;20210;-59
2023/03/23 12:10:26;;;;;;;3.83;1.40;;;15.50;99.90;;;;;;5106959;28;20206;-60
2023/03/23 12:13:29;;;;;;;3.87;1.50;;;15.60;99.90;;;;;;5097739;28;20205;-60
2023/03/23 12:16:04;;;;;;;4.10;1.23;;;15.50;99.90;;;;;;5079253;28;20295;-59
2023/03/23 12:18:55;;;;;;;5.33;1.47;;;15.50;99.90;;;;;;5071269;28;20317;-60
2023/03/23 12:21:48;;;;;;;4.47;1.60;;;15.40;99.90;;;;;;5090487;28;20245;-60
2023/03/23 12:24:29;;;;;;;4.97;1.27;;;15.60;99.90;;;;;;5096765;28;20220;-61
2023/03/23 12:27:19;;;;;;;2.57;1.30;;;15.10;99.90;;;;;;5082354;28;20193;-59
2023/03/23 12:30:04;;;;;;;4.70;1.43;;;15.20;99.90;;;;;;5098346;28;20290;-59
2023/03/23 12:32:55;;;;;;;4.40;2.03;;;15.20;99.90;;;;;;5097111;28;20205;-61
2023/03/23 12:35:42;;;;;;;7.50;1.60;;;15.10;99.90;;;;;;5103751;28;20196;-60
2023/03/23 12:38:27;;;;;;;2.80;1.23;;;15.30;99.90;;;;;;5098197;28;20211;-60
2023/03/23 12:41:10;;;;;;;5.47;1.40;;;15.60;99.90;;;;;;5103570;28;21016;-61
2023/03/23 12:43:52;;;;;;;3.83;1.43;;;15.70;99.90;;;;;;5098519;28;20328;-60
2023/03/23 12:46:46;;;;;;;3.07;1.20;;;15.90;99.90;;;;;;5093931;28;20624;-60
2023/03/23 12:49:19;;;;;;;4.57;1.40;;;16.40;99.90;;;;;;5053547;28;20247;-62
2023/03/23 12:52:17;;;;;;;4.30;1.23;;;16.50;99.90;;;;;;5095825;28;20187;-65
2023/03/23 12:54:51;;;;;;;3.93;1.40;;;15.80;99.90;;;;;;5093925;28;20301;-61
2023/03/23 12:57:36;;;;;;;5.17;1.50;;;15.90;99.90;;;;;;5073334;28;20798;-61
2023/03/23 13:00:23;;;;;;;4.23;1.33;;;15.80;99.90;;;;;;5091366;28;20237;-61
2023/03/23 13:03:17;;;;;;;4.83;1.10;;;15.70;99.90;;;;;;5070126;28;20253;-61
2023/03/23 13:05:54;;;;;;;4.37;1.20;;;15.70;99.90;;;;;;5092868;28;20658;-62
2023/03/23 13:08:35;;;;;;;4.53;1.20;;;16.00;99.90;;;;;;5069782;28;20273;-61